createdAt,value
2018-03-30T00:00:26.927Z,0.00
2018-03-30T00:01:26.914Z,0.00
2018-03-30T00:02:26.927Z,0.00
2018-03-30T00:03:26.951Z,0.00
2018-03-30T00:04:26.964Z,0.00
2018-03-30T00:05:26.981Z,0.00
2018-03-30T00:06:26.976Z,0.00
2018-03-30T00:07:27.003Z,0.00
2018-03-30T00:08:27.000Z,0.00
2018-03-30T00:09:27.018Z,0.00
2018-03-30T00:10:27.034Z,0.00
2018-03-30T00:11:27.044Z,0.00
2018-03-30T00:12:27.058Z,0.00
2018-03-30T00:13:27.069Z,0.00
2018-03-30T00:14:27.080Z,0.00
2018-03-30T00:15:27.129Z,0.00
2018-03-30T00:16:27.106Z,0.00
2018-03-30T00:17:27.122Z,0.00
2018-03-30T00:18:27.141Z,0.00
2018-03-30T00:19:27.152Z,0.00
2018-03-30T00:20:27.181Z,0.00
2018-03-30T00:21:27.177Z,0.00
2018-03-30T00:22:27.191Z,0.00
2018-03-30T00:23:27.199Z,0.00
2018-03-30T00:24:27.214Z,0.00
2018-03-30T00:25:27.233Z,0.00
2018-03-30T00:26:27.248Z,0.00
2018-03-30T00:27:27.266Z,0.00
2018-03-30T00:28:27.274Z,0.00
2018-03-30T00:29:27.283Z,0.00
2018-03-30T00:30:27.301Z,0.00
2018-03-30T00:31:27.302Z,0.00
2018-03-30T00:32:27.326Z,0.00
2018-03-30T00:33:27.384Z,0.00
2018-03-30T00:34:27.359Z,0.00
2018-03-30T00:35:27.370Z,0.00
2018-03-30T00:36:27.367Z,0.00
2018-03-30T00:37:27.381Z,0.00
2018-03-30T00:38:27.394Z,0.00
2018-03-30T00:39:27.421Z,0.00
2018-03-30T00:40:27.428Z,0.00
2018-03-30T00:41:27.436Z,0.00
2018-03-30T00:42:27.453Z,0.00
2018-03-30T00:43:27.469Z,0.00
2018-03-30T00:44:27.470Z,0.00
2018-03-30T00:45:27.485Z,0.00
2018-03-30T00:46:27.495Z,0.00
2018-03-30T00:47:27.523Z,0.00
2018-03-30T00:48:27.521Z,0.00
2018-03-30T00:49:27.545Z,0.00
2018-03-30T00:50:27.554Z,0.00
2018-03-30T00:51:27.568Z,0.00
2018-03-30T00:52:27.575Z,0.00
2018-03-30T00:53:27.597Z,0.00
2018-03-30T00:54:27.611Z,0.00
2018-03-30T00:55:27.627Z,0.00
2018-03-30T00:56:27.634Z,0.00
2018-03-30T00:57:27.658Z,0.00
2018-03-30T00:58:27.655Z,0.00
2018-03-30T00:59:27.677Z,0.00
2018-03-30T01:00:27.691Z,0.00
2018-03-30T01:01:27.702Z,0.00
2018-03-30T01:02:27.709Z,0.00
2018-03-30T01:03:27.734Z,0.00
2018-03-30T01:04:27.737Z,0.00
2018-03-30T01:05:27.756Z,0.00
2018-03-30T01:06:27.756Z,0.00
2018-03-30T01:07:27.778Z,0.00
2018-03-30T01:08:27.788Z,0.00
2018-03-30T01:09:27.797Z,0.00
2018-03-30T01:10:27.817Z,0.00
2018-03-30T01:11:27.833Z,0.00
2018-03-30T01:12:27.839Z,0.00
2018-03-30T01:13:27.852Z,0.00
2018-03-30T01:14:27.874Z,0.00
2018-03-30T01:15:27.916Z,0.00
2018-03-30T01:16:27.897Z,0.00
2018-03-30T01:17:27.910Z,0.00
2018-03-30T01:18:27.911Z,0.00
2018-03-30T01:19:27.927Z,0.00
2018-03-30T01:20:27.946Z,0.00
2018-03-30T01:21:27.962Z,0.00
2018-03-30T01:22:27.968Z,0.00
2018-03-30T01:23:27.984Z,0.00
2018-03-30T01:24:27.998Z,0.00
2018-03-30T01:25:28.005Z,0.00
2018-03-30T01:26:28.019Z,0.00
2018-03-30T01:27:28.035Z,0.00
2018-03-30T01:28:28.045Z,0.00
2018-03-30T01:29:28.059Z,0.00
2018-03-30T01:30:28.086Z,0.00
2018-03-30T01:31:28.081Z,0.00
2018-03-30T01:32:28.097Z,0.00
2018-03-30T01:33:28.140Z,0.00
2018-03-30T01:34:28.134Z,0.00
2018-03-30T01:35:28.163Z,0.00
2018-03-30T01:36:28.170Z,0.00
2018-03-30T01:37:28.157Z,0.00
2018-03-30T01:38:28.176Z,0.00
2018-03-30T01:39:28.226Z,0.00
2018-03-30T01:40:28.206Z,0.00
2018-03-30T01:41:28.218Z,0.00
2018-03-30T01:42:28.230Z,0.00
2018-03-30T01:43:28.241Z,0.00
2018-03-30T01:44:28.255Z,0.00
2018-03-30T01:45:28.269Z,0.00
2018-03-30T01:46:28.292Z,0.00
2018-03-30T01:47:28.296Z,0.00
2018-03-30T01:48:28.301Z,0.00
2018-03-30T01:49:28.312Z,0.00
2018-03-30T01:50:28.331Z,0.00
2018-03-30T01:51:28.343Z,0.00
2018-03-30T01:52:28.414Z,0.00
2018-03-30T01:53:28.370Z,0.00
2018-03-30T01:54:28.390Z,0.00
2018-03-30T01:55:28.387Z,0.00
2018-03-30T01:56:28.398Z,0.00
2018-03-30T01:57:28.413Z,0.00
2018-03-30T01:58:28.427Z,0.00
2018-03-30T01:59:28.436Z,0.00
2018-03-30T02:00:28.482Z,0.00
2018-03-30T02:01:28.471Z,0.00
2018-03-30T02:02:28.482Z,0.00
2018-03-30T02:03:28.490Z,0.00
2018-03-30T02:04:28.504Z,0.00
2018-03-30T02:05:28.533Z,0.00
2018-03-30T02:06:28.523Z,0.00
2018-03-30T02:07:28.570Z,0.00
2018-03-30T02:08:28.554Z,0.00
2018-03-30T02:09:28.620Z,0.00
2018-03-30T02:10:28.573Z,0.00
2018-03-30T02:11:28.583Z,0.00
2018-03-30T02:12:28.609Z,0.00
2018-03-30T02:13:28.615Z,0.00
2018-03-30T02:14:28.623Z,0.00
2018-03-30T02:15:28.636Z,0.00
2018-03-30T02:16:28.694Z,0.00
2018-03-30T02:17:28.668Z,0.00
2018-03-30T02:18:28.671Z,0.00
2018-03-30T02:19:28.711Z,0.00
2018-03-30T02:20:28.696Z,0.00
2018-03-30T02:21:28.725Z,0.00
2018-03-30T02:22:28.726Z,0.00
2018-03-30T02:23:28.740Z,0.00
2018-03-30T02:24:28.755Z,0.00
2018-03-30T02:25:28.761Z,0.00
2018-03-30T02:26:28.779Z,0.00
2018-03-30T02:27:28.786Z,0.00
2018-03-30T02:28:28.815Z,0.00
2018-03-30T02:29:28.815Z,0.00
2018-03-30T02:30:28.821Z,0.00
2018-03-30T02:31:28.836Z,0.00
2018-03-30T02:32:28.873Z,0.00
2018-03-30T02:33:28.866Z,0.00
2018-03-30T02:34:28.878Z,0.00
2018-03-30T02:35:28.883Z,0.00
2018-03-30T02:36:28.910Z,0.00
2018-03-30T02:37:28.922Z,0.00
2018-03-30T02:38:28.923Z,0.00
2018-03-30T02:39:28.940Z,0.00
2018-03-30T02:40:28.948Z,0.00
2018-03-30T02:41:28.959Z,0.00
2018-03-30T02:42:28.999Z,0.00
2018-03-30T02:43:28.995Z,0.00
2018-03-30T02:44:28.996Z,0.00
2018-03-30T02:45:29.035Z,0.00
2018-03-30T02:46:29.036Z,0.00
2018-03-30T02:47:29.035Z,0.00
2018-03-30T02:48:29.051Z,0.00
2018-03-30T02:49:29.056Z,0.00
2018-03-30T02:50:29.074Z,0.00
2018-03-30T02:51:29.105Z,0.00
2018-03-30T02:52:29.103Z,0.00
2018-03-30T02:53:29.117Z,0.00
2018-03-30T02:54:29.139Z,0.00
2018-03-30T02:55:29.138Z,0.00
2018-03-30T02:56:29.146Z,0.00
2018-03-30T02:57:29.165Z,0.00
2018-03-30T02:58:29.202Z,0.00
2018-03-30T02:59:29.202Z,0.00
2018-03-30T03:00:29.192Z,0.00
2018-03-30T03:01:29.207Z,0.00
2018-03-30T03:02:29.223Z,0.00
2018-03-30T03:03:29.230Z,0.00
2018-03-30T03:04:29.250Z,0.00
2018-03-30T03:05:29.254Z,0.00
2018-03-30T03:06:29.277Z,0.00
2018-03-30T03:07:29.283Z,0.00
2018-03-30T03:08:29.319Z,0.00
2018-03-30T03:09:29.311Z,0.00
2018-03-30T03:10:29.313Z,0.00
2018-03-30T03:11:29.336Z,0.00
2018-03-30T03:12:29.353Z,0.00
2018-03-30T03:13:29.351Z,0.00
2018-03-30T03:14:29.372Z,0.00
2018-03-30T03:15:29.391Z,0.00
2018-03-30T03:16:29.391Z,0.00
2018-03-30T03:17:29.403Z,0.00
2018-03-30T03:18:29.427Z,0.00
2018-03-30T03:19:29.432Z,0.00
2018-03-30T03:20:29.442Z,0.00
2018-03-30T03:21:29.455Z,0.00
2018-03-30T03:22:29.479Z,0.00
2018-03-30T03:23:29.492Z,0.00
2018-03-30T03:24:29.485Z,0.00
2018-03-30T03:25:29.500Z,0.00
2018-03-30T03:26:29.567Z,0.00
2018-03-30T03:27:29.530Z,0.00
2018-03-30T03:28:29.546Z,0.00
2018-03-30T03:29:29.563Z,0.00
2018-03-30T03:30:29.562Z,0.00
2018-03-30T03:31:29.579Z,0.00
2018-03-30T03:32:29.589Z,0.00
2018-03-30T03:33:29.608Z,0.00
2018-03-30T03:34:29.618Z,0.00
2018-03-30T03:35:29.623Z,0.00
2018-03-30T03:36:29.638Z,0.00
2018-03-30T03:37:29.670Z,0.00
2018-03-30T03:38:29.666Z,0.00
2018-03-30T03:39:29.695Z,0.00
2018-03-30T03:40:29.685Z,0.00
2018-03-30T03:41:29.700Z,0.00
2018-03-30T03:42:29.716Z,0.00
2018-03-30T03:43:29.724Z,0.00
2018-03-30T03:44:29.743Z,0.00
2018-03-30T03:45:29.763Z,0.00
2018-03-30T03:46:29.772Z,0.00
2018-03-30T03:47:29.778Z,0.00
2018-03-30T03:48:29.802Z,0.00
2018-03-30T03:49:29.795Z,0.00
2018-03-30T03:50:29.835Z,0.00
2018-03-30T03:51:29.840Z,0.00
2018-03-30T03:52:29.836Z,0.00
2018-03-30T03:53:29.847Z,0.00
2018-03-30T03:54:29.868Z,0.00
2018-03-30T03:55:29.871Z,0.00
2018-03-30T03:56:29.891Z,0.00
2018-03-30T03:57:29.906Z,0.00
2018-03-30T03:58:29.905Z,0.00
2018-03-30T03:59:29.927Z,0.00
2018-03-30T04:00:29.960Z,0.00
2018-03-30T04:01:29.955Z,0.00
2018-03-30T04:02:29.973Z,0.00
2018-03-30T04:03:29.981Z,0.00
2018-03-30T04:04:29.979Z,0.00
2018-03-30T04:05:29.997Z,0.00
2018-03-30T04:06:30.020Z,0.00
2018-03-30T04:07:30.021Z,0.00
2018-03-30T04:08:30.030Z,0.00
2018-03-30T04:09:30.044Z,0.00
2018-03-30T04:10:30.059Z,0.00
2018-03-30T04:11:30.072Z,0.00
2018-03-30T04:12:30.111Z,0.00
2018-03-30T04:13:30.092Z,0.00
2018-03-30T04:14:30.121Z,0.00
2018-03-30T04:15:30.120Z,0.00
2018-03-30T04:16:30.135Z,0.00
2018-03-30T04:17:30.148Z,0.00
2018-03-30T04:18:30.175Z,0.00
2018-03-30T04:19:30.265Z,0.00
2018-03-30T04:20:30.188Z,0.00
2018-03-30T04:21:30.195Z,0.00
2018-03-30T04:22:30.261Z,0.00
2018-03-30T04:23:30.250Z,0.00
2018-03-30T04:24:30.240Z,0.00
2018-03-30T04:25:30.241Z,0.00
2018-03-30T04:26:30.249Z,0.00
2018-03-30T04:27:30.273Z,0.00
2018-03-30T04:28:30.293Z,0.00
2018-03-30T04:29:30.295Z,0.00
2018-03-30T04:30:30.305Z,0.00
2018-03-30T04:31:30.330Z,0.00
2018-03-30T04:32:30.328Z,0.00
2018-03-30T04:33:30.337Z,0.00
2018-03-30T04:34:30.380Z,0.00
2018-03-30T04:35:30.366Z,0.00
2018-03-30T04:36:30.396Z,0.00
2018-03-30T04:37:30.394Z,0.00
2018-03-30T04:38:30.410Z,0.00
2018-03-30T04:39:30.423Z,0.00
2018-03-30T04:40:30.466Z,0.00
2018-03-30T04:41:30.443Z,0.00
2018-03-30T04:42:30.453Z,0.00
2018-03-30T04:43:30.480Z,0.00
2018-03-30T04:44:30.480Z,0.00
2018-03-30T04:45:30.491Z,0.00
2018-03-30T04:46:30.506Z,0.00
2018-03-30T04:47:30.528Z,0.00
2018-03-30T04:48:30.523Z,0.00
2018-03-30T04:49:30.534Z,0.00
2018-03-30T04:50:30.552Z,0.00
2018-03-30T04:51:30.560Z,0.00
2018-03-30T04:52:30.586Z,0.00
2018-03-30T04:53:30.590Z,0.00
2018-03-30T04:54:30.600Z,0.00
2018-03-30T04:55:30.618Z,0.00
2018-03-30T04:56:30.621Z,5.63
2018-03-30T04:57:30.641Z,5.63
2018-03-30T04:58:30.670Z,5.63
2018-03-30T04:59:30.660Z,5.63
2018-03-30T05:00:30.674Z,5.63
2018-03-30T05:01:30.709Z,5.63
2018-03-30T05:02:30.694Z,5.63
2018-03-30T05:03:30.713Z,5.63
2018-03-30T05:04:30.755Z,5.63
2018-03-30T05:05:30.789Z,5.63
2018-03-30T05:06:30.745Z,5.63
2018-03-30T05:07:30.764Z,5.63
2018-03-30T05:08:30.774Z,5.63
2018-03-30T05:09:30.788Z,5.63
2018-03-30T05:10:30.794Z,5.63
2018-03-30T05:11:30.808Z,11.25
2018-03-30T05:12:30.838Z,11.25
2018-03-30T05:13:30.852Z,11.25
2018-03-30T05:14:30.856Z,11.25
2018-03-30T05:15:30.897Z,11.25
2018-03-30T05:16:30.894Z,16.88
2018-03-30T05:17:30.883Z,16.88
2018-03-30T05:18:30.902Z,16.88
2018-03-30T05:19:30.911Z,16.88
2018-03-30T05:20:30.929Z,22.50
2018-03-30T05:21:30.967Z,22.50
2018-03-30T05:22:31.123Z,22.50
2018-03-30T05:23:30.956Z,28.13
2018-03-30T05:24:30.987Z,28.13
2018-03-30T05:25:30.986Z,28.13
2018-03-30T05:26:31.001Z,33.75
2018-03-30T05:27:31.029Z,33.75
2018-03-30T05:28:31.065Z,33.75
2018-03-30T05:29:31.123Z,39.38
2018-03-30T05:30:31.091Z,39.38
2018-03-30T05:31:31.080Z,39.38
2018-03-30T05:32:31.138Z,45.00
2018-03-30T05:33:31.142Z,45.00
2018-03-30T05:34:31.144Z,50.63
2018-03-30T05:35:31.106Z,50.63
2018-03-30T05:36:31.197Z,56.25
2018-03-30T05:37:31.145Z,56.25
2018-03-30T05:38:31.152Z,56.25
2018-03-30T05:39:31.218Z,61.88
2018-03-30T05:40:31.178Z,61.88
2018-03-30T05:41:31.198Z,61.88
2018-03-30T05:42:31.233Z,61.88
2018-03-30T05:43:31.229Z,67.50
2018-03-30T05:44:31.223Z,67.50
2018-03-30T05:45:31.270Z,67.50
2018-03-30T05:46:31.271Z,67.50
2018-03-30T05:47:31.296Z,67.50
2018-03-30T05:48:31.271Z,73.13
2018-03-30T05:49:31.285Z,73.13
2018-03-30T05:50:31.301Z,73.13
2018-03-30T05:51:31.340Z,73.13
2018-03-30T05:52:31.327Z,73.13
2018-03-30T05:53:31.349Z,73.13
2018-03-30T05:54:31.355Z,73.13
2018-03-30T05:55:31.389Z,73.13
2018-03-30T05:56:31.373Z,73.13
2018-03-30T05:57:31.409Z,73.13
2018-03-30T05:58:31.401Z,78.75
2018-03-30T05:59:31.428Z,78.75
2018-03-30T06:00:31.449Z,84.38
2018-03-30T06:01:31.442Z,84.38
2018-03-30T06:02:31.465Z,90.00
2018-03-30T06:03:31.462Z,90.00
2018-03-30T06:04:31.480Z,90.00
2018-03-30T06:05:31.489Z,90.00
2018-03-30T06:06:31.538Z,90.00
2018-03-30T06:07:31.541Z,90.00
2018-03-30T06:08:31.529Z,95.63
2018-03-30T06:09:31.541Z,95.63
2018-03-30T06:10:31.553Z,95.63
2018-03-30T06:11:31.571Z,101.25
2018-03-30T06:12:31.592Z,95.63
2018-03-30T06:13:31.601Z,106.88
2018-03-30T06:14:31.611Z,101.25
2018-03-30T06:15:31.617Z,101.25
2018-03-30T06:16:31.664Z,106.88
2018-03-30T06:17:31.638Z,106.88
2018-03-30T06:18:31.694Z,106.88
2018-03-30T06:19:31.725Z,112.50
2018-03-30T06:20:31.678Z,112.50
2018-03-30T06:21:31.700Z,118.13
2018-03-30T06:22:31.705Z,118.13
2018-03-30T06:23:31.720Z,118.13
2018-03-30T06:24:31.735Z,123.75
2018-03-30T06:25:31.747Z,123.75
2018-03-30T06:26:31.755Z,129.38
2018-03-30T06:27:31.769Z,129.38
2018-03-30T06:28:31.787Z,135.00
2018-03-30T06:29:31.807Z,140.63
2018-03-30T06:30:31.821Z,146.25
2018-03-30T06:31:31.821Z,151.88
2018-03-30T06:32:31.857Z,151.88
2018-03-30T06:33:31.851Z,151.88
2018-03-30T06:34:31.873Z,151.88
2018-03-30T06:35:31.888Z,151.88
2018-03-30T06:36:31.887Z,151.88
2018-03-30T06:37:31.904Z,151.88
2018-03-30T06:38:31.930Z,146.25
2018-03-30T06:39:31.930Z,151.88
2018-03-30T06:40:31.942Z,151.88
2018-03-30T06:41:31.948Z,157.50
2018-03-30T06:42:31.972Z,163.13
2018-03-30T06:43:31.983Z,168.75
2018-03-30T06:44:31.991Z,174.38
2018-03-30T06:45:32.009Z,174.38
2018-03-30T06:46:32.012Z,174.38
2018-03-30T06:47:32.063Z,174.38
2018-03-30T06:48:32.053Z,174.38
2018-03-30T06:49:32.098Z,174.38
2018-03-30T06:50:32.090Z,180.00
2018-03-30T06:51:32.095Z,180.00
2018-03-30T06:52:32.106Z,180.00
2018-03-30T06:53:32.123Z,191.25
2018-03-30T06:54:32.242Z,196.88
2018-03-30T06:55:32.304Z,202.50
2018-03-30T06:56:33.053Z,208.13
2018-03-30T06:57:32.810Z,213.75
2018-03-30T06:58:32.174Z,219.38
2018-03-30T06:59:32.196Z,230.63
2018-03-30T07:00:32.471Z,247.50
2018-03-30T07:01:32.224Z,258.75
2018-03-30T07:02:32.372Z,292.50
2018-03-30T07:03:32.266Z,315.00
2018-03-30T07:04:32.277Z,348.75
2018-03-30T07:05:32.273Z,371.25
2018-03-30T07:06:32.685Z,405.00
2018-03-30T07:07:32.840Z,450.00
2018-03-30T07:08:33.275Z,556.88
2018-03-30T07:09:32.842Z,511.88
2018-03-30T07:10:32.365Z,495.00
2018-03-30T07:11:32.554Z,556.88
2018-03-30T07:12:32.535Z,624.38
2018-03-30T07:13:32.705Z,742.50
2018-03-30T07:14:32.686Z,770.63
2018-03-30T07:15:32.631Z,855.00
2018-03-30T07:16:32.504Z,883.13
2018-03-30T07:17:32.452Z,815.63
2018-03-30T07:18:32.463Z,590.63
2018-03-30T07:19:32.492Z,528.75
2018-03-30T07:20:32.513Z,753.75
2018-03-30T07:21:32.576Z,810.00
2018-03-30T07:22:32.605Z,871.88
2018-03-30T07:23:32.607Z,759.38
2018-03-30T07:24:32.565Z,1085.63
2018-03-30T07:25:32.597Z,1186.88
2018-03-30T07:26:32.592Z,1158.75
2018-03-30T07:27:32.622Z,939.38
2018-03-30T07:28:32.672Z,1119.38
2018-03-30T07:29:32.633Z,945.00
2018-03-30T07:30:32.663Z,990.00
2018-03-30T07:31:32.668Z,905.63
2018-03-30T07:32:32.691Z,765.00
2018-03-30T07:33:32.703Z,556.88
2018-03-30T07:34:32.721Z,506.25
2018-03-30T07:35:32.763Z,590.63
2018-03-30T07:36:32.762Z,511.88
2018-03-30T07:37:32.774Z,562.50
2018-03-30T07:38:32.792Z,613.13
2018-03-30T07:39:32.842Z,663.75
2018-03-30T07:40:32.889Z,697.50
2018-03-30T07:41:32.850Z,871.88
2018-03-30T07:42:32.862Z,945.00
2018-03-30T07:43:32.887Z,1175.63
2018-03-30T07:44:32.907Z,1254.38
2018-03-30T07:45:32.938Z,1333.13
2018-03-30T07:46:32.935Z,1310.63
2018-03-30T07:47:32.953Z,1501.88
2018-03-30T07:48:32.978Z,1586.25
2018-03-30T07:49:32.986Z,1417.50
2018-03-30T07:50:32.999Z,1209.38
2018-03-30T07:51:33.021Z,973.13
2018-03-30T07:52:33.044Z,1113.75
2018-03-30T07:53:33.062Z,871.88
2018-03-30T07:54:33.079Z,781.88
2018-03-30T07:55:33.118Z,776.25
2018-03-30T07:56:33.120Z,725.63
2018-03-30T07:57:33.131Z,804.38
2018-03-30T07:58:33.144Z,793.13
2018-03-30T07:59:33.182Z,793.13
2018-03-30T08:00:33.189Z,860.63
2018-03-30T08:01:33.207Z,849.38
2018-03-30T08:02:33.241Z,871.88
2018-03-30T08:03:33.276Z,815.63
2018-03-30T08:04:33.272Z,843.75
2018-03-30T08:05:33.291Z,911.25
2018-03-30T08:06:33.303Z,877.50
2018-03-30T08:07:33.331Z,916.88
2018-03-30T08:08:33.345Z,843.75
2018-03-30T08:09:33.362Z,815.63
2018-03-30T08:10:33.413Z,1001.25
2018-03-30T08:11:33.464Z,1085.63
2018-03-30T08:12:33.422Z,1091.25
2018-03-30T08:13:33.443Z,1350.00
2018-03-30T08:14:33.464Z,1456.88
2018-03-30T08:15:33.527Z,1518.75
2018-03-30T08:16:33.508Z,1676.25
2018-03-30T08:17:33.524Z,1665.00
2018-03-30T08:18:33.540Z,1569.38
2018-03-30T08:19:33.582Z,1597.50
2018-03-30T08:20:33.597Z,1648.13
2018-03-30T08:21:33.603Z,1681.88
2018-03-30T08:22:33.639Z,1698.75
2018-03-30T08:23:33.662Z,1648.13
2018-03-30T08:24:33.682Z,1676.25
2018-03-30T08:25:33.698Z,1693.13
2018-03-30T08:26:33.723Z,1687.50
2018-03-30T08:27:33.747Z,1670.63
2018-03-30T08:28:33.766Z,1648.13
2018-03-30T08:29:33.774Z,1620.00
2018-03-30T08:30:33.798Z,1631.25
2018-03-30T08:31:33.845Z,1575.00
2018-03-30T08:32:33.854Z,1575.00
2018-03-30T08:33:33.868Z,1080.00
2018-03-30T08:34:33.889Z,489.38
2018-03-30T08:35:33.908Z,416.25
2018-03-30T08:36:33.931Z,405.00
2018-03-30T08:37:33.984Z,405.00
2018-03-30T08:38:33.969Z,399.38
2018-03-30T08:39:34.073Z,399.38
2018-03-30T08:40:34.003Z,405.00
2018-03-30T08:41:34.038Z,405.00
2018-03-30T08:42:34.056Z,405.00
2018-03-30T08:43:34.066Z,399.38
2018-03-30T08:44:34.144Z,399.38
2018-03-30T08:45:34.165Z,399.38
2018-03-30T08:46:34.133Z,399.38
2018-03-30T08:47:34.146Z,393.75
2018-03-30T08:48:34.161Z,399.38
2018-03-30T08:49:34.189Z,393.75
2018-03-30T08:50:34.210Z,393.75
2018-03-30T08:51:34.217Z,393.75
2018-03-30T08:52:34.235Z,393.75
2018-03-30T08:53:34.276Z,388.13
2018-03-30T08:54:34.274Z,382.50
2018-03-30T08:55:34.299Z,382.50
2018-03-30T08:56:34.314Z,376.88
2018-03-30T08:57:34.362Z,382.50
2018-03-30T08:58:34.389Z,376.88
2018-03-30T08:59:34.387Z,371.25
2018-03-30T09:00:34.407Z,371.25
2018-03-30T09:01:34.434Z,365.63
2018-03-30T09:02:34.422Z,365.63
2018-03-30T09:03:34.443Z,360.00
2018-03-30T09:04:34.466Z,360.00
2018-03-30T09:05:34.481Z,360.00
2018-03-30T09:06:34.494Z,360.00
2018-03-30T09:07:34.522Z,365.63
2018-03-30T09:08:34.529Z,360.00
2018-03-30T09:09:34.553Z,360.00
2018-03-30T09:10:34.567Z,360.00
2018-03-30T09:11:34.588Z,365.63
2018-03-30T09:12:34.609Z,360.00
2018-03-30T09:13:34.623Z,360.00
2018-03-30T09:14:34.647Z,354.38
2018-03-30T09:15:34.710Z,354.38
2018-03-30T09:16:34.668Z,354.38
2018-03-30T09:17:34.694Z,354.38
2018-03-30T09:18:34.705Z,354.38
2018-03-30T09:19:34.727Z,354.38
2018-03-30T09:20:34.799Z,360.00
2018-03-30T09:21:34.754Z,360.00
2018-03-30T09:22:34.791Z,354.38
2018-03-30T09:23:34.811Z,354.38
2018-03-30T09:24:34.810Z,354.38
2018-03-30T09:25:34.830Z,354.38
2018-03-30T09:26:34.848Z,354.38
2018-03-30T09:27:34.866Z,348.75
2018-03-30T09:28:34.905Z,354.38
2018-03-30T09:29:34.904Z,354.38
2018-03-30T09:30:34.924Z,354.38
2018-03-30T09:31:34.939Z,354.38
2018-03-30T09:32:34.963Z,354.38
2018-03-30T09:33:34.987Z,360.00
2018-03-30T09:34:34.996Z,360.00
2018-03-30T09:35:35.028Z,360.00
2018-03-30T09:36:35.020Z,360.00
2018-03-30T09:37:35.045Z,360.00
2018-03-30T09:38:35.068Z,360.00
2018-03-30T09:39:35.074Z,360.00
2018-03-30T09:40:35.090Z,354.38
2018-03-30T09:41:35.131Z,354.38
2018-03-30T09:42:35.144Z,354.38
2018-03-30T09:43:35.168Z,360.00
2018-03-30T09:44:35.169Z,354.38
2018-03-30T09:45:35.194Z,354.38
2018-03-30T09:46:35.212Z,354.38
2018-03-30T09:47:35.217Z,360.00
2018-03-30T09:48:35.283Z,365.63
2018-03-30T09:49:35.275Z,365.63
2018-03-30T09:50:35.309Z,360.00
2018-03-30T09:51:35.305Z,360.00
2018-03-30T09:52:35.339Z,354.38
2018-03-30T09:53:35.342Z,354.38
2018-03-30T09:54:35.353Z,360.00
2018-03-30T09:55:35.370Z,365.63
2018-03-30T09:56:35.399Z,360.00
2018-03-30T09:57:35.401Z,360.00
2018-03-30T09:58:35.425Z,365.63
2018-03-30T09:59:35.574Z,365.63
2018-03-30T10:00:35.488Z,365.63
2018-03-30T10:01:35.471Z,371.25
2018-03-30T10:02:35.525Z,365.63
2018-03-30T10:03:35.519Z,365.63
2018-03-30T10:04:35.533Z,365.63
2018-03-30T10:05:35.559Z,365.63
2018-03-30T10:06:35.582Z,365.63
2018-03-30T10:07:35.598Z,365.63
2018-03-30T10:08:35.605Z,365.63
2018-03-30T10:09:35.629Z,365.63
2018-03-30T10:10:35.669Z,365.63
2018-03-30T10:11:35.747Z,365.63
2018-03-30T10:12:35.677Z,360.00
2018-03-30T10:13:35.701Z,365.63
2018-03-30T10:14:35.704Z,360.00
2018-03-30T10:15:35.762Z,360.00
2018-03-30T10:16:35.752Z,360.00
2018-03-30T10:17:35.794Z,365.63
2018-03-30T10:18:35.792Z,371.25
2018-03-30T10:19:35.810Z,382.50
2018-03-30T10:20:35.908Z,376.88
2018-03-30T10:21:35.854Z,382.50
2018-03-30T10:22:35.856Z,388.13
2018-03-30T10:23:35.875Z,388.13
2018-03-30T10:24:35.902Z,388.13
2018-03-30T10:25:35.947Z,393.75
2018-03-30T10:26:35.930Z,399.38
2018-03-30T10:27:35.973Z,416.25
2018-03-30T10:28:35.993Z,421.88
2018-03-30T10:29:36.005Z,410.63
2018-03-30T10:30:36.023Z,405.00
2018-03-30T10:31:36.056Z,388.13
2018-03-30T10:32:36.040Z,388.13
2018-03-30T10:33:36.086Z,393.75
2018-03-30T10:34:36.081Z,399.38
2018-03-30T10:35:36.137Z,416.25
2018-03-30T10:36:36.129Z,421.88
2018-03-30T10:37:36.145Z,399.38
2018-03-30T10:38:36.186Z,410.63
2018-03-30T10:39:36.169Z,410.63
2018-03-30T10:40:36.207Z,405.00
2018-03-30T10:41:36.213Z,399.38
2018-03-30T10:42:36.244Z,410.63
2018-03-30T10:43:36.304Z,410.63
2018-03-30T10:44:36.308Z,405.00
2018-03-30T10:45:36.301Z,416.25
2018-03-30T10:46:36.323Z,416.25
2018-03-30T10:47:36.343Z,416.25
2018-03-30T10:48:36.361Z,405.00
2018-03-30T10:49:36.376Z,410.63
2018-03-30T10:50:36.390Z,421.88
2018-03-30T10:51:36.403Z,438.75
2018-03-30T10:52:36.420Z,450.00
2018-03-30T10:53:36.449Z,466.88
2018-03-30T10:54:36.470Z,472.50
2018-03-30T10:55:36.499Z,483.75
2018-03-30T10:56:36.503Z,483.75
2018-03-30T10:57:36.532Z,483.75
2018-03-30T10:58:36.547Z,483.75
2018-03-30T10:59:36.623Z,472.50
2018-03-30T11:00:36.581Z,416.25
2018-03-30T11:01:36.602Z,461.25
2018-03-30T11:02:36.621Z,489.38
2018-03-30T11:03:36.717Z,495.00
2018-03-30T11:04:36.651Z,500.63
2018-03-30T11:05:36.676Z,483.75
2018-03-30T11:06:36.694Z,450.00
2018-03-30T11:07:36.730Z,433.13
2018-03-30T11:08:36.736Z,421.88
2018-03-30T11:09:36.758Z,450.00
2018-03-30T11:10:36.777Z,421.88
2018-03-30T11:11:36.816Z,410.63
2018-03-30T11:12:36.814Z,433.13
2018-03-30T11:13:36.873Z,399.38
2018-03-30T11:14:36.878Z,382.50
2018-03-30T11:15:36.873Z,365.63
2018-03-30T11:16:36.893Z,360.00
2018-03-30T11:17:36.913Z,365.63
2018-03-30T11:18:36.918Z,393.75
2018-03-30T11:19:36.935Z,382.50
2018-03-30T11:20:37.014Z,388.13
2018-03-30T11:21:37.015Z,393.75
2018-03-30T11:22:37.125Z,388.13
2018-03-30T11:23:37.020Z,388.13
2018-03-30T11:24:37.065Z,388.13
2018-03-30T11:25:37.089Z,433.13
2018-03-30T11:26:37.065Z,405.00
2018-03-30T11:27:37.113Z,410.63
2018-03-30T11:28:37.160Z,405.00
2018-03-30T11:29:37.190Z,399.38
2018-03-30T11:30:37.152Z,405.00
2018-03-30T11:31:37.167Z,410.63
2018-03-30T11:32:37.186Z,416.25
2018-03-30T11:33:37.217Z,427.50
2018-03-30T11:34:37.279Z,444.38
2018-03-30T11:35:37.242Z,450.00
2018-03-30T11:36:37.333Z,455.63
2018-03-30T11:37:37.300Z,461.25
2018-03-30T11:38:37.329Z,461.25
2018-03-30T11:39:37.317Z,455.63
2018-03-30T11:40:37.338Z,444.38
2018-03-30T11:41:37.366Z,455.63
2018-03-30T11:42:37.367Z,478.13
2018-03-30T11:43:37.395Z,472.50
2018-03-30T11:44:37.470Z,478.13
2018-03-30T11:45:37.425Z,444.38
2018-03-30T11:46:37.440Z,427.50
2018-03-30T11:47:37.469Z,427.50
2018-03-30T11:48:37.512Z,421.88
2018-03-30T11:49:37.520Z,416.25
2018-03-30T11:50:37.538Z,405.00
2018-03-30T11:51:37.536Z,399.38
2018-03-30T11:52:37.559Z,393.75
2018-03-30T11:53:37.583Z,382.50
2018-03-30T11:54:37.607Z,376.88
2018-03-30T11:55:37.619Z,382.50
2018-03-30T11:56:37.651Z,393.75
2018-03-30T11:57:37.651Z,433.13
2018-03-30T11:58:37.675Z,438.75
2018-03-30T11:59:37.690Z,433.13
2018-03-30T12:00:37.710Z,393.75
2018-03-30T12:01:37.732Z,444.38
2018-03-30T12:02:37.748Z,450.00
2018-03-30T12:03:37.770Z,438.75
2018-03-30T12:04:37.792Z,427.50
2018-03-30T12:05:37.828Z,421.88
2018-03-30T12:06:37.847Z,399.38
2018-03-30T12:07:37.847Z,393.75
2018-03-30T12:08:37.867Z,388.13
2018-03-30T12:09:37.878Z,382.50
2018-03-30T12:10:37.909Z,371.25
2018-03-30T12:11:37.926Z,360.00
2018-03-30T12:12:37.950Z,348.75
2018-03-30T12:13:37.959Z,343.13
2018-03-30T12:14:37.985Z,343.13
2018-03-30T12:15:38.003Z,303.75
2018-03-30T12:16:38.056Z,315.00
2018-03-30T12:17:38.078Z,320.63
2018-03-30T12:18:38.062Z,331.88
2018-03-30T12:19:38.090Z,354.38
2018-03-30T12:20:38.099Z,337.50
2018-03-30T12:21:38.104Z,331.88
2018-03-30T12:22:38.141Z,360.00
2018-03-30T12:23:38.142Z,354.38
2018-03-30T12:24:38.162Z,326.25
2018-03-30T12:25:38.181Z,371.25
2018-03-30T12:26:38.196Z,326.25
2018-03-30T12:27:38.222Z,348.75
2018-03-30T12:28:38.233Z,354.38
2018-03-30T12:29:38.262Z,360.00
2018-03-30T12:30:38.266Z,376.88
2018-03-30T12:31:38.294Z,360.00
2018-03-30T12:32:38.332Z,399.38
2018-03-30T12:33:38.326Z,416.25
2018-03-30T12:34:38.348Z,444.38
2018-03-30T12:35:38.360Z,455.63
2018-03-30T12:36:38.381Z,466.88
2018-03-30T12:37:38.397Z,466.88
2018-03-30T12:38:38.433Z,483.75
2018-03-30T12:39:38.482Z,483.75
2018-03-30T12:40:38.524Z,472.50
2018-03-30T12:41:38.495Z,455.63
2018-03-30T12:42:38.499Z,438.75
2018-03-30T12:43:38.509Z,421.88
2018-03-30T12:44:38.573Z,416.25
2018-03-30T12:45:38.546Z,388.13
2018-03-30T12:46:38.589Z,393.75
2018-03-30T12:47:38.606Z,376.88
2018-03-30T12:48:38.606Z,360.00